CCA4462 ZUZH-ZUUU
Flight info
| Callsign | CCA4462 |
|---|---|
| Flight time | 1h 3m |
| Altitude | 24600 |
| Route | OTBIM W144 IGNAK IGNAK2E |
| Aircraft | A20N/M-VW/C |
Departure
| Time | 2026-05-04 11:47 |
|---|---|
| Airport | Panzhihua Bao'anying Airport (ZUZH) |
Arrival
| Time | 2026-05-04 12:50 |
|---|---|
| Airport | Chengdu Shuangliu International Airport (ZUUU) |
| Time | Latitude | Longitude | Altitude | Speed | Heading |
|---|---|---|---|---|---|
| 2026-05-04 11:31 | 26.53708 | 101.79469 | 6497 ft | 0 kts | 291° |
| 2026-05-04 11:40 | 26.53667 | 101.79536 | 6503 ft | 1 kts | 339° |
| 2026-05-04 11:43 | 26.53681 | 101.79531 | 6503 ft | 8 kts | 345° |
| 2026-05-04 11:43 | 26.53738 | 101.79547 | 6501 ft | 8 kts | 21° |
| 2026-05-04 11:43 | 26.53794 | 101.79572 | 6500 ft | 9 kts | 21° |
| 2026-05-04 11:44 | 26.53855 | 101.79599 | 6498 ft | 10 kts | 21° |
| 2026-05-04 11:44 | 26.53921 | 101.79628 | 6500 ft | 11 kts | 21° |
| 2026-05-04 11:44 | 26.53956 | 101.79685 | 6501 ft | 9 kts | 108° |
| 2026-05-04 11:44 | 26.53933 | 101.79748 | 6501 ft | 7 kts | 112° |
| 2026-05-04 11:45 | 26.53928 | 101.79810 | 6502 ft | 11 kts | 62° |
| 2026-05-04 11:45 | 26.54011 | 101.79856 | 6506 ft | 17 kts | 21° |
| 2026-05-04 11:45 | 26.54143 | 101.79913 | 6508 ft | 24 kts | 21° |
| 2026-05-04 11:45 | 26.54311 | 101.79988 | 6511 ft | 28 kts | 22° |
| 2026-05-04 11:46 | 26.54493 | 101.80065 | 6516 ft | 27 kts | 21° |
| 2026-05-04 11:46 | 26.54658 | 101.80136 | 6520 ft | 24 kts | 21° |
| 2026-05-04 11:46 | 26.54802 | 101.80198 | 6523 ft | 21 kts | 21° |
| 2026-05-04 11:46 | 26.54925 | 101.80253 | 6526 ft | 18 kts | 21° |
| 2026-05-04 11:47 | 26.55054 | 101.80308 | 6526 ft | 19 kts | 20° |
| 2026-05-04 11:47 | 26.55159 | 101.80322 | 6527 ft | 12 kts | 38° |
| 2026-05-04 11:47 | 26.55142 | 101.80344 | 6527 ft | 9 kts | 193° |
| 2026-05-04 11:47 | 26.54922 | 101.80249 | 6526 ft | 62 kts | 201° |
| 2026-05-04 11:48 | 26.54343 | 101.80000 | 6512 ft | 117 kts | 201° |
| 2026-05-04 11:48 | 26.53417 | 101.79595 | 6502 ft | 166 kts | 202° |
| 2026-05-04 11:48 | 26.52321 | 101.79100 | 6824 ft | 171 kts | 201° |
| 2026-05-04 11:48 | 26.51192 | 101.78731 | 7312 ft | 169 kts | 177° |
| 2026-05-04 11:49 | 26.50179 | 101.79298 | 7750 ft | 169 kts | 127° |
| 2026-05-04 11:49 | 26.49783 | 101.80569 | 8026 ft | 185 kts | 89° |
| 2026-05-04 11:49 | 26.50108 | 101.82036 | 8229 ft | 207 kts | 68° |
| 2026-05-04 11:49 | 26.50714 | 101.83594 | 8427 ft | 232 kts | 65° |
| 2026-05-04 11:50 | 26.51409 | 101.85326 | 8794 ft | 253 kts | 66° |
| 2026-05-04 11:50 | 26.52120 | 101.87152 | 9519 ft | 259 kts | 66° |
| 2026-05-04 11:50 | 26.52832 | 101.89020 | 10252 ft | 265 kts | 66° |
| 2026-05-04 11:50 | 26.53549 | 101.90931 | 10965 ft | 268 kts | 66° |
| 2026-05-04 11:51 | 26.54268 | 101.92868 | 11682 ft | 271 kts | 66° |
| 2026-05-04 11:51 | 26.54991 | 101.94826 | 12417 ft | 274 kts | 66° |
| 2026-05-04 11:51 | 26.55723 | 101.96810 | 13132 ft | 278 kts | 66° |
| 2026-05-04 11:51 | 26.56286 | 101.98895 | 13817 ft | 286 kts | 77° |
| 2026-05-04 11:52 | 26.56624 | 102.01157 | 14121 ft | 306 kts | 81° |
| 2026-05-04 11:52 | 26.56918 | 102.03594 | 14378 ft | 327 kts | 81° |
| 2026-05-04 11:52 | 26.57224 | 102.06190 | 14635 ft | 347 kts | 81° |
| 2026-05-04 11:52 | 26.57548 | 102.08895 | 14869 ft | 366 kts | 81° |
| 2026-05-04 11:53 | 26.57897 | 102.11772 | 15175 ft | 381 kts | 81° |
| 2026-05-04 11:53 | 26.58258 | 102.14742 | 15708 ft | 389 kts | 81° |
| 2026-05-04 11:53 | 26.58625 | 102.17754 | 16288 ft | 394 kts | 80° |
| 2026-05-04 11:53 | 26.58998 | 102.20798 | 16916 ft | 397 kts | 80° |
| 2026-05-04 11:55 | 26.61699 | 102.42979 | 20522 ft | 427 kts | 79° |
| 2026-05-04 11:55 | 26.62098 | 102.46285 | 20973 ft | 432 kts | 80° |
| 2026-05-04 11:56 | 26.62503 | 102.49624 | 21511 ft | 434 kts | 79° |
| 2026-05-04 11:56 | 26.63154 | 102.52928 | 21975 ft | 436 kts | 68° |
| 2026-05-04 11:56 | 26.64446 | 102.55982 | 22394 ft | 436 kts | 56° |
| 2026-05-04 11:56 | 26.66071 | 102.58840 | 22864 ft | 436 kts | 51° |
| 2026-05-04 11:57 | 26.67845 | 102.61611 | 23304 ft | 440 kts | 49° |
| 2026-05-04 11:57 | 26.69697 | 102.64360 | 23675 ft | 445 kts | 48° |
| 2026-05-04 11:57 | 26.71577 | 102.67124 | 24067 ft | 448 kts | 48° |
| 2026-05-04 11:57 | 26.73462 | 102.69917 | 24465 ft | 451 kts | 49° |
| 2026-05-04 11:58 | 26.75339 | 102.72746 | 24710 ft | 454 kts | 49° |
| 2026-05-04 11:58 | 26.77208 | 102.75594 | 24754 ft | 455 kts | 49° |
| 2026-05-04 11:58 | 26.79085 | 102.78450 | 24756 ft | 456 kts | 49° |
| 2026-05-04 11:58 | 26.80956 | 102.81309 | 24752 ft | 455 kts | 49° |
| 2026-05-04 11:59 | 26.82820 | 102.84177 | 24750 ft | 455 kts | 50° |
| 2026-05-04 11:59 | 26.84680 | 102.87045 | 24748 ft | 456 kts | 50° |
| 2026-05-04 11:59 | 26.86540 | 102.89916 | 24747 ft | 455 kts | 50° |
| 2026-05-04 11:59 | 26.88401 | 102.92790 | 24742 ft | 456 kts | 50° |
| 2026-05-04 12:00 | 26.90258 | 102.95662 | 24739 ft | 454 kts | 50° |
| 2026-05-04 12:00 | 26.92108 | 102.98523 | 24735 ft | 453 kts | 50° |
| 2026-05-04 12:00 | 26.93956 | 103.01380 | 24728 ft | 453 kts | 50° |
| 2026-05-04 12:00 | 26.95805 | 103.04236 | 24734 ft | 453 kts | 49° |
| 2026-05-04 12:01 | 26.97653 | 103.07094 | 24732 ft | 453 kts | 50° |
| 2026-05-04 12:01 | 26.99502 | 103.09955 | 24714 ft | 453 kts | 50° |
| 2026-05-04 12:02 | 27.10575 | 103.27117 | 24705 ft | 453 kts | 50° |
| 2026-05-04 12:03 | 27.12391 | 103.29948 | 24695 ft | 453 kts | 50° |
| 2026-05-04 12:03 | 27.14234 | 103.32823 | 24707 ft | 452 kts | 50° |
| 2026-05-04 12:03 | 27.16069 | 103.35684 | 24690 ft | 451 kts | 50° |
| 2026-05-04 12:03 | 27.17900 | 103.38540 | 24692 ft | 450 kts | 50° |
| 2026-05-04 12:04 | 27.19724 | 103.41389 | 24681 ft | 450 kts | 50° |
| 2026-05-04 12:04 | 27.21551 | 103.44241 | 24683 ft | 450 kts | 50° |
| 2026-05-04 12:04 | 27.23403 | 103.47123 | 24682 ft | 461 kts | 50° |
| 2026-05-04 12:04 | 27.25296 | 103.50087 | 24675 ft | 470 kts | 50° |
| 2026-05-04 12:05 | 27.27174 | 103.53034 | 24677 ft | 457 kts | 50° |
| 2026-05-04 12:05 | 27.29011 | 103.55912 | 24671 ft | 450 kts | 50° |
| 2026-05-04 12:05 | 27.30836 | 103.58765 | 24671 ft | 449 kts | 50° |
| 2026-05-04 12:05 | 27.32658 | 103.61609 | 24669 ft | 449 kts | 50° |
| 2026-05-04 12:06 | 27.34483 | 103.64457 | 24664 ft | 449 kts | 50° |
| 2026-05-04 12:06 | 27.36306 | 103.67309 | 24663 ft | 449 kts | 50° |
| 2026-05-04 12:06 | 27.38128 | 103.70164 | 24663 ft | 449 kts | 50° |
| 2026-05-04 12:06 | 27.39946 | 103.73018 | 24664 ft | 449 kts | 50° |
| 2026-05-04 12:07 | 27.41768 | 103.75880 | 24657 ft | 451 kts | 50° |
| 2026-05-04 12:07 | 27.43598 | 103.78753 | 24651 ft | 451 kts | 49° |
| 2026-05-04 12:07 | 27.45652 | 103.81377 | 24652 ft | 443 kts | 37° |
| 2026-05-04 12:07 | 27.48100 | 103.83411 | 24652 ft | 434 kts | 25° |
| 2026-05-04 12:08 | 27.50725 | 103.85083 | 24642 ft | 432 kts | 22° |
| 2026-05-04 12:08 | 27.52499 | 103.86096 | 24670 ft | 431 kts | 19° |
| 2026-05-04 12:08 | 27.55209 | 103.87540 | 24649 ft | 430 kts | 18° |
| 2026-05-04 12:08 | 27.57929 | 103.88932 | 24655 ft | 429 kts | 18° |
| 2026-05-04 12:09 | 27.60652 | 103.90310 | 24639 ft | 430 kts | 18° |
| 2026-05-04 12:09 | 27.63380 | 103.91694 | 24638 ft | 429 kts | 18° |
| 2026-05-04 12:09 | 27.66102 | 103.93084 | 24630 ft | 430 kts | 18° |
| 2026-05-04 12:09 | 27.68820 | 103.94491 | 24632 ft | 430 kts | 19° |
| 2026-05-04 12:10 | 27.71527 | 103.95909 | 24624 ft | 429 kts | 19° |
| 2026-05-04 12:10 | 27.74231 | 103.97335 | 24627 ft | 429 kts | 18° |
| 2026-05-04 12:10 | 27.76940 | 103.98767 | 24627 ft | 430 kts | 19° |
| 2026-05-04 12:10 | 27.79649 | 104.00196 | 24630 ft | 430 kts | 18° |
| 2026-05-04 12:11 | 27.82361 | 104.01622 | 24622 ft | 430 kts | 18° |
| 2026-05-04 12:11 | 27.85074 | 104.03043 | 24612 ft | 430 kts | 18° |
| 2026-05-04 12:11 | 27.87786 | 104.04468 | 24614 ft | 430 kts | 18° |
| 2026-05-04 12:11 | 27.90492 | 104.05900 | 24610 ft | 430 kts | 19° |
| 2026-05-04 12:12 | 27.93204 | 104.07335 | 24611 ft | 430 kts | 18° |
| 2026-05-04 12:12 | 27.95910 | 104.08767 | 24581 ft | 428 kts | 18° |
| 2026-05-04 12:12 | 27.98610 | 104.10179 | 24595 ft | 427 kts | 18° |
| 2026-05-04 12:12 | 28.01297 | 104.11590 | 24593 ft | 426 kts | 18° |
| 2026-05-04 12:13 | 28.03983 | 104.13010 | 24578 ft | 425 kts | 18° |
| 2026-05-04 12:14 | 28.22623 | 104.22925 | 24571 ft | 425 kts | 17° |
| 2026-05-04 12:15 | 28.25296 | 104.24348 | 24525 ft | 423 kts | 17° |
| 2026-05-04 12:15 | 28.27956 | 104.25747 | 24560 ft | 421 kts | 17° |
| 2026-05-04 12:15 | 28.30607 | 104.27183 | 24543 ft | 423 kts | 17° |
| 2026-05-04 12:15 | 28.33266 | 104.28612 | 24559 ft | 423 kts | 17° |
| 2026-05-04 12:16 | 28.35958 | 104.29921 | 24556 ft | 417 kts | 11° |
| 2026-05-04 12:16 | 28.38737 | 104.30664 | 24554 ft | 405 kts | 359° |
| 2026-05-04 12:16 | 28.41525 | 104.30848 | 24552 ft | 399 kts | 353° |
| 2026-05-04 12:16 | 28.44293 | 104.30827 | 24558 ft | 397 kts | 351° |
| 2026-05-04 12:17 | 28.47047 | 104.30702 | 24555 ft | 396 kts | 350° |
| 2026-05-04 12:17 | 28.49801 | 104.30534 | 24572 ft | 396 kts | 350° |
| 2026-05-04 12:17 | 28.52542 | 104.30353 | 24556 ft | 394 kts | 350° |
| 2026-05-04 12:17 | 28.55275 | 104.30178 | 24549 ft | 393 kts | 350° |
| 2026-05-04 12:18 | 28.58006 | 104.30013 | 24561 ft | 393 kts | 350° |
| 2026-05-04 12:18 | 28.60735 | 104.29854 | 24559 ft | 392 kts | 350° |
| 2026-05-04 12:18 | 28.63462 | 104.29696 | 24551 ft | 393 kts | 350° |
| 2026-05-04 12:18 | 28.66193 | 104.29540 | 24550 ft | 393 kts | 350° |
| 2026-05-04 12:19 | 28.68920 | 104.29390 | 24554 ft | 392 kts | 351° |
| 2026-05-04 12:19 | 28.71648 | 104.29248 | 24548 ft | 392 kts | 351° |
| 2026-05-04 12:19 | 28.74374 | 104.29102 | 24550 ft | 392 kts | 350° |
| 2026-05-04 12:19 | 28.77103 | 104.28951 | 24547 ft | 393 kts | 350° |
| 2026-05-04 12:20 | 28.79830 | 104.28800 | 24555 ft | 392 kts | 351° |
| 2026-05-04 12:20 | 28.82552 | 104.28648 | 24545 ft | 392 kts | 351° |
| 2026-05-04 12:20 | 28.85240 | 104.28500 | 24544 ft | 392 kts | 351° |
| 2026-05-04 12:20 | 28.87963 | 104.28351 | 24542 ft | 392 kts | 351° |
| 2026-05-04 12:21 | 28.90686 | 104.28202 | 24546 ft | 392 kts | 351° |
| 2026-05-04 12:21 | 28.93406 | 104.28053 | 24546 ft | 392 kts | 351° |
| 2026-05-04 12:21 | 28.96127 | 104.27904 | 24540 ft | 392 kts | 351° |
| 2026-05-04 12:21 | 28.98848 | 104.27755 | 24541 ft | 392 kts | 351° |
| 2026-05-04 12:22 | 29.01570 | 104.27605 | 24544 ft | 392 kts | 351° |
| 2026-05-04 12:22 | 29.04289 | 104.27456 | 24544 ft | 391 kts | 351° |
| 2026-05-04 12:22 | 29.07009 | 104.27307 | 24554 ft | 391 kts | 351° |
| 2026-05-04 12:22 | 29.09732 | 104.27157 | 24546 ft | 391 kts | 351° |
| 2026-05-04 12:23 | 29.12451 | 104.27007 | 24547 ft | 391 kts | 351° |
| 2026-05-04 12:23 | 29.15171 | 104.26858 | 24541 ft | 391 kts | 351° |
| 2026-05-04 12:23 | 29.17893 | 104.26708 | 24541 ft | 391 kts | 351° |
| 2026-05-04 12:23 | 29.20614 | 104.26558 | 24547 ft | 391 kts | 351° |
| 2026-05-04 12:24 | 29.23329 | 104.26404 | 24543 ft | 391 kts | 350° |
| 2026-05-04 12:24 | 29.25998 | 104.25983 | 24540 ft | 384 kts | 341° |
| 2026-05-04 12:24 | 29.28480 | 104.24958 | 24548 ft | 376 kts | 329° |
| 2026-05-04 12:24 | 29.30705 | 104.23418 | 24548 ft | 373 kts | 323° |
| 2026-05-04 12:25 | 29.32839 | 104.21725 | 24545 ft | 373 kts | 322° |
| 2026-05-04 12:25 | 29.34958 | 104.20007 | 24561 ft | 373 kts | 322° |
| 2026-05-04 12:25 | 29.37079 | 104.18288 | 24549 ft | 374 kts | 322° |
| 2026-05-04 12:25 | 29.39207 | 104.16567 | 24543 ft | 374 kts | 322° |
| 2026-05-04 12:26 | 29.41336 | 104.14848 | 24550 ft | 375 kts | 322° |
| 2026-05-04 12:26 | 29.43467 | 104.13127 | 24548 ft | 374 kts | 322° |
| 2026-05-04 12:26 | 29.45599 | 104.11410 | 24549 ft | 374 kts | 322° |
| 2026-05-04 12:26 | 29.47701 | 104.09716 | 24549 ft | 374 kts | 322° |
| 2026-05-04 12:27 | 29.49859 | 104.07975 | 24555 ft | 374 kts | 322° |
| 2026-05-04 12:27 | 29.51959 | 104.06280 | 24547 ft | 374 kts | 322° |
| 2026-05-04 12:27 | 29.54088 | 104.04563 | 24553 ft | 374 kts | 322° |
| 2026-05-04 12:27 | 29.56219 | 104.02843 | 24558 ft | 374 kts | 322° |
| 2026-05-04 12:28 | 29.58351 | 104.01122 | 24553 ft | 374 kts | 322° |
| 2026-05-04 12:28 | 29.60479 | 103.99402 | 24559 ft | 374 kts | 322° |
| 2026-05-04 12:28 | 29.62609 | 103.97680 | 24564 ft | 374 kts | 322° |
| 2026-05-04 12:28 | 29.64735 | 103.95960 | 24562 ft | 374 kts | 322° |
| 2026-05-04 12:29 | 29.66863 | 103.94237 | 24562 ft | 375 kts | 323° |
| 2026-05-04 12:29 | 29.69003 | 103.92504 | 24560 ft | 377 kts | 323° |
| 2026-05-04 12:29 | 29.71150 | 103.90763 | 24559 ft | 378 kts | 323° |
| 2026-05-04 12:29 | 29.73302 | 103.89019 | 24557 ft | 379 kts | 323° |
| 2026-05-04 12:30 | 29.75456 | 103.87271 | 24561 ft | 379 kts | 323° |
| 2026-05-04 12:30 | 29.77608 | 103.85524 | 24539 ft | 379 kts | 322° |
| 2026-05-04 12:30 | 29.79758 | 103.83777 | 24566 ft | 378 kts | 322° |
| 2026-05-04 12:30 | 29.81906 | 103.82031 | 24566 ft | 378 kts | 322° |
| 2026-05-04 12:31 | 29.84054 | 103.80284 | 24553 ft | 378 kts | 322° |
| 2026-05-04 12:31 | 29.86196 | 103.78541 | 24560 ft | 378 kts | 322° |
| 2026-05-04 12:31 | 29.88344 | 103.76793 | 24563 ft | 378 kts | 322° |
| 2026-05-04 12:31 | 29.90489 | 103.75045 | 24571 ft | 378 kts | 322° |
| 2026-05-04 12:32 | 29.92633 | 103.73298 | 24562 ft | 378 kts | 322° |
| 2026-05-04 12:32 | 29.96921 | 103.69800 | 24572 ft | 378 kts | 323° |
| 2026-05-04 12:32 | 29.99061 | 103.68053 | 24183 ft | 377 kts | 323° |
| 2026-05-04 12:33 | 30.01190 | 103.66314 | 23320 ft | 384 kts | 323° |
| 2026-05-04 12:33 | 30.03377 | 103.64526 | 22593 ft | 385 kts | 323° |
| 2026-05-04 12:33 | 30.05569 | 103.62776 | 22020 ft | 382 kts | 327° |
| 2026-05-04 12:33 | 30.07963 | 103.61474 | 21447 ft | 382 kts | 341° |
| 2026-05-04 12:34 | 30.10591 | 103.61049 | 20862 ft | 385 kts | 358° |
| 2026-05-04 12:34 | 30.13240 | 103.61605 | 20264 ft | 390 kts | 14° |
| 2026-05-04 12:34 | 30.15795 | 103.62682 | 19651 ft | 391 kts | 18° |
| 2026-05-04 12:34 | 30.18315 | 103.63852 | 19072 ft | 390 kts | 18° |
| 2026-05-04 12:35 | 30.20829 | 103.65026 | 18472 ft | 389 kts | 18° |
| 2026-05-04 12:35 | 30.23333 | 103.66188 | 17828 ft | 388 kts | 18° |
| 2026-05-04 12:35 | 30.25832 | 103.67340 | 17253 ft | 384 kts | 19° |
| 2026-05-04 12:35 | 30.28307 | 103.68478 | 16654 ft | 382 kts | 19° |
| 2026-05-04 12:36 | 30.30764 | 103.69610 | 16071 ft | 379 kts | 19° |
| 2026-05-04 12:36 | 30.33202 | 103.70745 | 15491 ft | 377 kts | 20° |
| 2026-05-04 12:36 | 30.35631 | 103.71877 | 14916 ft | 374 kts | 20° |
| 2026-05-04 12:36 | 30.38039 | 103.73001 | 14349 ft | 372 kts | 20° |
| 2026-05-04 12:37 | 30.40436 | 103.74119 | 13766 ft | 371 kts | 20° |
| 2026-05-04 12:37 | 30.42826 | 103.75235 | 13154 ft | 368 kts | 20° |
| 2026-05-04 12:37 | 30.45194 | 103.76341 | 12529 ft | 367 kts | 20° |
| 2026-05-04 12:37 | 30.47583 | 103.77344 | 11933 ft | 364 kts | 11° |
| 2026-05-04 12:38 | 30.50080 | 103.77510 | 11348 ft | 359 kts | 353° |
| 2026-05-04 12:38 | 30.52537 | 103.77065 | 10775 ft | 355 kts | 348° |
| 2026-05-04 12:38 | 30.54935 | 103.76537 | 10211 ft | 346 kts | 347° |
| 2026-05-04 12:38 | 30.57267 | 103.76027 | 9643 ft | 336 kts | 349° |
| 2026-05-04 12:39 | 30.59574 | 103.76032 | 9026 ft | 330 kts | 11° |
| 2026-05-04 12:39 | 30.61657 | 103.77056 | 8501 ft | 322 kts | 36° |
| 2026-05-04 12:39 | 30.63128 | 103.78898 | 8235 ft | 305 kts | 60° |
| 2026-05-04 12:39 | 30.63760 | 103.81126 | 7998 ft | 288 kts | 86° |
| 2026-05-04 12:40 | 30.63493 | 103.83368 | 7753 ft | 271 kts | 114° |
| 2026-05-04 12:40 | 30.62440 | 103.85059 | 7557 ft | 250 kts | 142° |
| 2026-05-04 12:40 | 30.60968 | 103.85838 | 7326 ft | 229 kts | 173° |
| 2026-05-04 12:40 | 30.59454 | 103.85591 | 7097 ft | 219 kts | 206° |
| 2026-05-04 12:41 | 30.58206 | 103.84566 | 6830 ft | 224 kts | 222° |
| 2026-05-04 12:41 | 30.57103 | 103.83287 | 6581 ft | 224 kts | 225° |
| 2026-05-04 12:41 | 30.56006 | 103.82024 | 6338 ft | 221 kts | 217° |
| 2026-05-04 12:41 | 30.54706 | 103.81104 | 6096 ft | 218 kts | 205° |
| 2026-05-04 12:42 | 30.53311 | 103.80362 | 5858 ft | 228 kts | 203° |
| 2026-05-04 12:42 | 30.51813 | 103.79614 | 5606 ft | 239 kts | 202° |
| 2026-05-04 12:42 | 30.50277 | 103.78853 | 5357 ft | 240 kts | 202° |
| 2026-05-04 12:42 | 30.48742 | 103.78098 | 5114 ft | 239 kts | 202° |
| 2026-05-04 12:43 | 30.47200 | 103.77390 | 4872 ft | 238 kts | 201° |
| 2026-05-04 12:43 | 30.45661 | 103.76699 | 4649 ft | 236 kts | 200° |
| 2026-05-04 12:43 | 30.44130 | 103.76015 | 4477 ft | 236 kts | 200° |
| 2026-05-04 12:43 | 30.42602 | 103.75330 | 4288 ft | 233 kts | 200° |
| 2026-05-04 12:44 | 30.41115 | 103.74662 | 4122 ft | 225 kts | 200° |
| 2026-05-04 12:44 | 30.39648 | 103.74143 | 3966 ft | 216 kts | 187° |
| 2026-05-04 12:44 | 30.38219 | 103.74191 | 3966 ft | 196 kts | 167° |
| 2026-05-04 12:44 | 30.37023 | 103.74828 | 3946 ft | 189 kts | 143° |
| 2026-05-04 12:45 | 30.36174 | 103.75985 | 3936 ft | 191 kts | 120° |
| 2026-05-04 12:45 | 30.35724 | 103.77443 | 3941 ft | 194 kts | 105° |
| 2026-05-04 12:45 | 30.35454 | 103.78952 | 3934 ft | 195 kts | 103° |
| 2026-05-04 12:45 | 30.35211 | 103.80497 | 3931 ft | 195 kts | 102° |
| 2026-05-04 12:46 | 30.35002 | 103.82046 | 3940 ft | 196 kts | 96° |
| 2026-05-04 12:46 | 30.35068 | 103.83619 | 3928 ft | 197 kts | 79° |
| 2026-05-04 12:46 | 30.35572 | 103.85094 | 3937 ft | 199 kts | 57° |
| 2026-05-04 12:46 | 30.36520 | 103.86263 | 3940 ft | 201 kts | 40° |
| 2026-05-04 12:47 | 30.37723 | 103.87090 | 3932 ft | 203 kts | 25° |
| 2026-05-04 12:47 | 30.39033 | 103.87692 | 3932 ft | 203 kts | 22° |
| 2026-05-04 12:47 | 30.40350 | 103.88291 | 3936 ft | 203 kts | 22° |
| 2026-05-04 12:47 | 30.41661 | 103.88901 | 3832 ft | 203 kts | 23° |
| 2026-05-04 12:48 | 30.42968 | 103.89515 | 3570 ft | 202 kts | 23° |
| 2026-05-04 12:48 | 30.44249 | 103.90107 | 3308 ft | 195 kts | 23° |
| 2026-05-04 12:48 | 30.45473 | 103.90672 | 3065 ft | 183 kts | 23° |
| 2026-05-04 12:48 | 30.46604 | 103.91195 | 2847 ft | 168 kts | 24° |
| 2026-05-04 12:49 | 30.47643 | 103.91676 | 2631 ft | 154 kts | 23° |
| 2026-05-04 12:49 | 30.48617 | 103.92130 | 2409 ft | 149 kts | 22° |
| 2026-05-04 12:49 | 30.49570 | 103.92571 | 2231 ft | 147 kts | 22° |
| 2026-05-04 12:49 | 30.50516 | 103.93014 | 2033 ft | 146 kts | 22° |
| 2026-05-04 12:50 | 30.51459 | 103.93448 | 1815 ft | 145 kts | 21° |
| 2026-05-04 12:50 | 30.52386 | 103.93873 | 1680 ft | 138 kts | 21° |
| 2026-05-04 12:50 | 30.53136 | 103.94222 | 1664 ft | 91 kts | 22° |
| 2026-05-04 12:50 | 30.53556 | 103.94416 | 1671 ft | 39 kts | 21° |
| 2026-05-04 12:51 | 30.53765 | 103.94465 | 1665 ft | 29 kts | 354° |
| 2026-05-04 12:51 | 30.53962 | 103.94436 | 1652 ft | 25 kts | 352° |
| 2026-05-04 12:51 | 30.54099 | 103.94439 | 1651 ft | 17 kts | 24° |
| 2026-05-04 12:51 | 30.54207 | 103.94491 | 1650 ft | 17 kts | 22° |
| 2026-05-04 12:52 | 30.54313 | 103.94542 | 1650 ft | 16 kts | 22° |
| 2026-05-04 12:52 | 30.54415 | 103.94588 | 1650 ft | 16 kts | 21° |
| 2026-05-04 12:52 | 30.54517 | 103.94635 | 1650 ft | 16 kts | 22° |
| 2026-05-04 12:52 | 30.54618 | 103.94683 | 1650 ft | 17 kts | 22° |
| 2026-05-04 12:53 | 30.54740 | 103.94740 | 1650 ft | 21 kts | 22° |
| 2026-05-04 12:53 | 30.54879 | 103.94806 | 1650 ft | 22 kts | 21° |
| 2026-05-04 12:53 | 30.55008 | 103.94840 | 1650 ft | 17 kts | 328° |
| 2026-05-04 12:53 | 30.55060 | 103.94731 | 1650 ft | 15 kts | 293° |
| 2026-05-04 12:54 | 30.55103 | 103.94618 | 1650 ft | 17 kts | 293° |
| 2026-05-04 12:54 | 30.55202 | 103.94486 | 1650 ft | 24 kts | 331° |
| 2026-05-04 12:54 | 30.55356 | 103.94407 | 1650 ft | 24 kts | 336° |
| 2026-05-04 12:54 | 30.55511 | 103.94329 | 1650 ft | 24 kts | 336° |
| 2026-05-04 12:55 | 30.55663 | 103.94255 | 1650 ft | 24 kts | 338° |
| 2026-05-04 12:55 | 30.55824 | 103.94194 | 1650 ft | 25 kts | 1° |
| 2026-05-04 12:55 | 30.55992 | 103.94259 | 1650 ft | 26 kts | 21° |
| 2026-05-04 12:55 | 30.56164 | 103.94338 | 1650 ft | 27 kts | 21° |
| 2026-05-04 12:56 | 30.56343 | 103.94422 | 1650 ft | 28 kts | 22° |
| 2026-05-04 12:56 | 30.56526 | 103.94508 | 1650 ft | 29 kts | 22° |
| 2026-05-04 12:56 | 30.56715 | 103.94596 | 1650 ft | 29 kts | 22° |
| 2026-05-04 12:56 | 30.56901 | 103.94674 | 1650 ft | 29 kts | 13° |
| 2026-05-04 12:57 | 30.57088 | 103.94742 | 1650 ft | 29 kts | 22° |
| 2026-05-04 12:57 | 30.57233 | 103.94810 | 1650 ft | 12 kts | 22° |
| 2026-05-04 12:57 | 30.57259 | 103.94883 | 1650 ft | 10 kts | 114° |
| 2026-05-04 12:57 | 30.57233 | 103.94954 | 1650 ft | 10 kts | 112° |
| 2026-05-04 12:58 | 30.57204 | 103.95036 | 1650 ft | 12 kts | 112° |
| 2026-05-04 12:58 | 30.57193 | 103.95117 | 1650 ft | 11 kts | 73° |
| 2026-05-04 12:58 | 30.57216 | 103.95163 | 1650 ft | 4 kts | 59° |
| 2026-05-04 12:58 | 30.57222 | 103.95174 | 1650 ft | 0 kts | 59° |